BAW305 LFPG-EGLL
Flight info
| Callsign | BAW305 |
|---|---|
| Flight time | N/A |
| Altitude | 24000 |
| Route | OPALE DCT KESAX DCT DIMAL DCT ALESO |
| Aircraft | A320/M-SDE3FGHIRWY/LB1 |
Departure
| Time | 2026-05-01 13:56 |
|---|---|
| Airport | Charles de Gaulle International Airport (LFPG) |
Arrival
| Time | N/A |
|---|---|
| Airport | London Heathrow Airport (EGLL) |
| Time | Latitude | Longitude | Altitude | Speed | Heading |
|---|---|---|---|---|---|
| 2026-05-01 13:22 | 49.00189 | 2.56739 | 361 ft | 0 kts | 355° |
| 2026-05-01 13:46 | 49.00166 | 2.56741 | 362 ft | 4 kts | 0° |
| 2026-05-01 13:46 | 49.00140 | 2.56738 | 364 ft | 4 kts | 17° |
| 2026-05-01 13:47 | 49.00120 | 2.56721 | 358 ft | 4 kts | 72° |
| 2026-05-01 13:47 | 49.00119 | 2.56712 | 364 ft | 0 kts | 85° |
| 2026-05-01 13:50 | 49.00119 | 2.56721 | 357 ft | 4 kts | 85° |
| 2026-05-01 13:50 | 49.00124 | 2.56809 | 354 ft | 12 kts | 85° |
| 2026-05-01 13:50 | 49.00122 | 2.56953 | 354 ft | 15 kts | 117° |
| 2026-05-01 13:51 | 49.00020 | 2.56990 | 354 ft | 17 kts | 175° |
| 2026-05-01 13:51 | 48.99938 | 2.56929 | 354 ft | 16 kts | 258° |
| 2026-05-01 13:51 | 48.99927 | 2.56750 | 356 ft | 18 kts | 265° |
| 2026-05-01 13:51 | 48.99916 | 2.56547 | 359 ft | 20 kts | 265° |
| 2026-05-01 13:52 | 48.99905 | 2.56318 | 354 ft | 23 kts | 265° |
| 2026-05-01 13:52 | 48.99892 | 2.56079 | 354 ft | 17 kts | 265° |
| 2026-05-01 13:52 | 48.99897 | 2.55907 | 354 ft | 9 kts | 285° |
| 2026-05-01 13:52 | 48.99887 | 2.55811 | 359 ft | 11 kts | 225° |
| 2026-05-01 13:53 | 48.99808 | 2.55801 | 362 ft | 13 kts | 175° |
| 2026-05-01 13:53 | 48.99610 | 2.55834 | 358 ft | 12 kts | 146° |
| 2026-05-01 13:53 | 48.99604 | 2.55902 | 353 ft | 0 kts | 85° |
| 2026-05-01 13:55 | 48.99607 | 2.55973 | 354 ft | 32 kts | 85° |
| 2026-05-01 13:55 | 48.99644 | 2.56683 | 359 ft | 99 kts | 85° |
| 2026-05-01 13:55 | 48.99715 | 2.58003 | 359 ft | 149 kts | 84° |
| 2026-05-01 13:56 | 48.99774 | 2.59687 | 760 ft | 158 kts | 89° |
| 2026-05-01 13:56 | 48.99859 | 2.61372 | 1357 ft | 163 kts | 89° |
| 2026-05-01 13:56 | 48.99955 | 2.63101 | 1975 ft | 164 kts | 90° |
| 2026-05-01 13:56 | 49.00049 | 2.64822 | 2570 ft | 163 kts | 88° |
| 2026-05-01 13:57 | 49.00145 | 2.66545 | 3156 ft | 163 kts | 87° |
| 2026-05-01 13:57 | 49.00208 | 2.67690 | 3530 ft | 164 kts | 88° |
| 2026-05-01 13:57 | 49.00340 | 2.70131 | 3961 ft | 189 kts | 87° |
| 2026-05-01 13:57 | 49.00451 | 2.72243 | 4227 ft | 212 kts | 88° |
| 2026-05-01 13:58 | 49.00574 | 2.74611 | 4545 ft | 236 kts | 87° |
| 2026-05-01 13:58 | 49.00712 | 2.77237 | 4981 ft | 260 kts | 88° |
| 2026-05-01 13:58 | 49.00859 | 2.80049 | 5691 ft | 270 kts | 87° |
| 2026-05-01 13:58 | 49.01022 | 2.82927 | 6592 ft | 274 kts | 84° |
| 2026-05-01 13:59 | 49.01663 | 2.85682 | 7403 ft | 283 kts | 58° |
| 2026-05-01 13:59 | 49.03070 | 2.87808 | 8239 ft | 291 kts | 32° |
| 2026-05-01 13:59 | 49.04983 | 2.88851 | 9076 ft | 297 kts | 6° |
| 2026-05-01 13:59 | 49.07041 | 2.88547 | 9872 ft | 302 kts | 339° |
| 2026-05-01 14:00 | 49.08856 | 2.86931 | 10602 ft | 305 kts | 320° |
| 2026-05-01 14:00 | 49.10563 | 2.84890 | 11043 ft | 322 kts | 320° |
| 2026-05-01 14:00 | 49.12385 | 2.82693 | 11252 ft | 345 kts | 320° |
| 2026-05-01 14:00 | 49.14329 | 2.80351 | 11550 ft | 363 kts | 320° |
| 2026-05-01 14:01 | 49.16339 | 2.77943 | 12146 ft | 370 kts | 321° |
| 2026-05-01 14:01 | 49.18384 | 2.75503 | 12798 ft | 376 kts | 321° |
| 2026-05-01 14:01 | 49.20463 | 2.73028 | 13453 ft | 381 kts | 321° |
| 2026-05-01 14:01 | 49.22568 | 2.70521 | 14092 ft | 386 kts | 321° |
| 2026-05-01 14:02 | 49.23975 | 2.68842 | 14474 ft | 389 kts | 321° |
| 2026-05-01 14:02 | 49.26120 | 2.66277 | 15066 ft | 393 kts | 321° |
| 2026-05-01 14:02 | 49.28287 | 2.63684 | 15653 ft | 397 kts | 321° |
| 2026-05-01 14:02 | 49.30472 | 2.61066 | 16222 ft | 401 kts | 321° |
| 2026-05-01 14:03 | 49.32679 | 2.58420 | 16792 ft | 405 kts | 321° |
| 2026-05-01 14:03 | 49.34908 | 2.55745 | 17392 ft | 409 kts | 321° |
| 2026-05-01 14:03 | 49.37892 | 2.52154 | 18177 ft | 414 kts | 320° |
| 2026-05-01 14:03 | 49.39430 | 2.50302 | 18575 ft | 417 kts | 320° |
| 2026-05-01 14:04 | 49.41725 | 2.47532 | 19122 ft | 421 kts | 320° |
| 2026-05-01 14:04 | 49.44040 | 2.44729 | 19697 ft | 425 kts | 320° |
| 2026-05-01 14:04 | 49.46371 | 2.41907 | 20275 ft | 428 kts | 320° |
| 2026-05-01 14:04 | 49.48720 | 2.39066 | 20841 ft | 432 kts | 321° |
| 2026-05-01 14:05 | 49.51063 | 2.36232 | 21364 ft | 435 kts | 321° |
| 2026-05-01 14:05 | 49.53448 | 2.33342 | 21907 ft | 438 kts | 320° |
| 2026-05-01 14:05 | 49.55849 | 2.30422 | 22404 ft | 441 kts | 320° |